createdAt,value
2019-06-01T00:02:10.187Z,23.59
2019-06-01T00:04:43.017Z,23.54
2019-06-01T00:07:15.727Z,23.48
2019-06-01T00:09:49.531Z,23.42
2019-06-01T00:12:21.893Z,23.36
2019-06-01T00:14:54.411Z,23.36
2019-06-01T00:17:26.700Z,23.29
2019-06-01T00:19:58.886Z,23.19
2019-06-01T00:22:30.965Z,22.92
2019-06-01T00:25:03.114Z,22.98
2019-06-01T00:27:36.578Z,23.04
2019-06-01T00:30:09.063Z,23.04
2019-06-01T00:32:41.298Z,22.91
2019-06-01T00:35:13.699Z,22.74
2019-06-01T00:37:45.921Z,22.74
2019-06-01T00:40:18.274Z,22.79
2019-06-01T00:42:50.573Z,22.59
2019-06-01T00:45:22.895Z,22.63
2019-06-01T00:47:54.990Z,22.70
2019-06-01T00:50:27.185Z,22.86
2019-06-01T00:52:59.495Z,22.70
2019-06-01T00:55:31.778Z,22.59
2019-06-01T00:58:04.130Z,22.67
2019-06-01T01:00:43.561Z,22.78
2019-06-01T01:03:10.430Z,22.79
2019-06-01T01:05:42.734Z,22.63
2019-06-01T01:08:14.913Z,22.62
2019-06-01T01:10:47.166Z,22.57
2019-06-01T01:13:21.043Z,22.34
2019-06-01T01:15:55.359Z,22.32
2019-06-01T01:18:27.841Z,22.24
2019-06-01T01:21:00.132Z,22.23
2019-06-01T01:23:32.335Z,22.17
2019-06-01T01:26:05.153Z,22.28
2019-06-01T01:28:37.442Z,22.39
2019-06-01T01:31:13.938Z,22.22
2019-06-01T01:33:44.702Z,22.14
2019-06-01T01:36:16.921Z,21.98
2019-06-01T01:38:50.467Z,21.87
2019-06-01T01:41:22.653Z,21.82
2019-06-01T01:43:54.960Z,21.89
2019-06-01T01:46:27.054Z,21.85
2019-06-01T01:48:59.231Z,21.74
2019-06-01T01:51:31.398Z,21.79
2019-06-01T01:54:04.521Z,21.60
2019-06-01T01:56:36.828Z,21.71
2019-06-01T01:59:08.993Z,21.60
2019-06-01T02:01:41.246Z,21.55
2019-06-01T02:04:13.626Z,21.71
2019-06-01T02:06:45.844Z,21.64
2019-06-01T02:09:18.068Z,21.80
2019-06-01T02:11:51.390Z,22.06
2019-06-01T02:14:23.684Z,22.14
2019-06-01T02:16:56.269Z,22.15
2019-06-01T02:19:28.681Z,22.15
2019-06-01T02:22:01.081Z,22.06
2019-06-01T02:24:33.429Z,22.29
2019-06-01T02:27:05.583Z,22.40
2019-06-01T02:29:37.732Z,22.35
2019-06-01T02:32:10.132Z,22.84
2019-06-01T02:34:42.398Z,22.88
2019-06-01T02:37:14.653Z,23.13
2019-06-01T02:39:46.898Z,24.06
2019-06-01T02:42:19.520Z,23.85
2019-06-01T02:44:51.612Z,23.97
2019-06-01T02:47:23.871Z,23.87
2019-06-01T02:49:57.581Z,24.04
2019-06-01T02:52:29.939Z,24.63
2019-06-01T02:55:02.576Z,24.39
2019-06-01T02:57:36.105Z,23.83
2019-06-01T03:00:09.642Z,24.28
2019-06-01T03:02:42.382Z,25.07
2019-06-01T03:05:15.561Z,26.01
2019-06-01T03:07:49.418Z,24.03
2019-06-01T03:10:21.519Z,25.49
2019-06-01T03:12:55.288Z,24.07
2019-06-01T03:15:30.458Z,25.66
2019-06-01T03:18:04.108Z,26.99
2019-06-01T03:20:37.845Z,25.60
2019-06-01T03:23:12.108Z,25.50
2019-06-01T03:25:47.228Z,25.86
2019-06-01T03:28:22.292Z,27.27
2019-06-01T03:30:54.477Z,26.34
2019-06-01T03:33:26.634Z,25.71
2019-06-01T03:35:58.984Z,26.21
2019-06-01T03:38:31.195Z,26.35
2019-06-01T03:41:04.020Z,26.31
2019-06-01T03:43:36.477Z,26.79
2019-06-01T03:46:08.793Z,26.16
2019-06-01T03:48:40.918Z,26.57
2019-06-01T03:51:13.080Z,27.43
2019-06-01T03:53:45.316Z,29.05
2019-06-01T03:56:17.476Z,29.80
2019-06-01T03:58:49.769Z,30.50
2019-06-01T04:01:22.023Z,31.14
2019-06-01T04:03:54.287Z,30.45
2019-06-01T04:06:26.576Z,31.12
2019-06-01T04:08:58.660Z,30.59
2019-06-01T04:11:30.912Z,31.17
2019-06-01T04:14:03.984Z,29.93
2019-06-01T04:16:36.334Z,29.99
2019-06-01T04:19:08.558Z,28.82
2019-06-01T04:21:40.725Z,30.66
2019-06-01T04:24:12.794Z,31.94
2019-06-01T04:26:45.050Z,31.49
2019-06-01T04:29:17.306Z,30.78
2019-06-01T04:31:49.542Z,28.94
2019-06-01T04:34:21.811Z,28.83
2019-06-01T04:36:54.055Z,28.68
2019-06-01T04:39:26.218Z,27.44
2019-06-01T04:41:58.380Z,26.91
2019-06-01T04:44:30.634Z,26.78
2019-06-01T04:47:04.265Z,26.54
2019-06-01T04:49:36.688Z,26.60
2019-06-01T04:52:08.894Z,26.39
2019-06-01T04:54:41.267Z,26.44
2019-06-01T04:57:13.533Z,26.71
2019-06-01T04:59:45.900Z,26.23
2019-06-01T05:02:18.263Z,25.81
2019-06-01T05:04:50.585Z,26.37
2019-06-01T05:07:22.894Z,26.13
2019-06-01T05:09:55.183Z,26.40
2019-06-01T05:12:27.388Z,26.77
2019-06-01T05:14:59.520Z,26.67
2019-06-01T05:17:31.961Z,26.82
2019-06-01T05:20:06.258Z,26.16
2019-06-01T05:22:39.775Z,26.28
2019-06-01T05:25:13.499Z,26.66
2019-06-01T05:27:45.944Z,26.54
2019-06-01T05:30:18.312Z,26.18
2019-06-01T05:32:50.478Z,26.58
2019-06-01T05:35:22.788Z,26.44
2019-06-01T05:37:54.976Z,26.51
2019-06-01T05:40:27.138Z,26.60
2019-06-01T05:42:59.298Z,26.91
2019-06-01T05:45:31.568Z,26.65
2019-06-01T05:48:04.054Z,26.71
2019-06-01T05:50:36.207Z,26.68
2019-06-01T05:53:08.493Z,26.58
2019-06-01T05:55:40.560Z,26.77
2019-06-01T05:58:13.039Z,26.43
2019-06-01T06:00:45.689Z,26.64
2019-06-01T06:03:22.011Z,26.67
2019-06-01T06:05:51.984Z,27.15
2019-06-01T06:08:24.570Z,26.63
2019-06-01T06:10:56.759Z,27.11
2019-06-01T06:13:29.009Z,27.36
2019-06-01T06:16:01.260Z,27.86
2019-06-01T06:18:33.387Z,27.56
2019-06-01T06:21:05.806Z,27.84
2019-06-01T06:23:38.091Z,27.83
2019-06-01T06:26:10.404Z,28.39
2019-06-01T06:28:42.663Z,28.62
2019-06-01T06:31:15.081Z,28.18
2019-06-01T06:33:55.900Z,28.60
2019-06-01T06:36:21.761Z,28.73
2019-06-01T06:38:53.904Z,28.73
2019-06-01T06:41:26.053Z,28.76
2019-06-01T06:43:58.356Z,28.42
2019-06-01T06:46:30.570Z,28.88
2019-06-01T06:49:02.770Z,29.07
2019-06-01T06:51:34.814Z,29.06
2019-06-01T06:54:07.110Z,28.91
2019-06-01T06:56:39.226Z,28.56
2019-06-01T06:59:11.862Z,28.56
2019-06-01T07:01:44.068Z,29.09
2019-06-01T07:04:17.080Z,29.28
2019-06-01T07:06:49.454Z,29.20
2019-06-01T07:09:22.001Z,29.27
2019-06-01T07:11:55.301Z,29.50
2019-06-01T07:14:27.663Z,28.89
2019-06-01T07:16:59.919Z,29.20
2019-06-01T07:19:31.995Z,29.19
2019-06-01T07:22:04.307Z,29.38
2019-06-01T07:24:36.402Z,29.35
2019-06-01T07:27:08.642Z,30.02
2019-06-01T07:29:40.908Z,30.01
2019-06-01T07:32:13.055Z,29.09
2019-06-01T07:34:45.295Z,29.41
2019-06-01T07:37:17.530Z,29.86
2019-06-01T07:39:49.840Z,30.36
2019-06-01T07:42:24.457Z,30.39
2019-06-01T07:44:55.894Z,30.44
2019-06-01T07:47:29.174Z,30.75
2019-06-01T07:50:01.966Z,30.04
2019-06-01T07:52:35.678Z,30.01
2019-06-01T07:55:08.537Z,30.37
2019-06-01T07:57:43.567Z,30.50
2019-06-01T08:00:15.057Z,30.48
2019-06-01T08:02:47.390Z,30.53
2019-06-01T08:05:19.448Z,29.72
2019-06-01T08:07:51.669Z,30.14
2019-06-01T08:10:24.889Z,30.33
2019-06-01T08:12:58.087Z,30.69
2019-06-01T08:15:30.364Z,30.78
2019-06-01T08:18:02.531Z,30.61
2019-06-01T08:20:34.811Z,30.56
2019-06-01T08:23:07.100Z,30.70
2019-06-01T08:28:54.395Z,29.90
2019-06-01T08:31:26.699Z,30.24
2019-06-01T08:33:59.102Z,30.45
2019-06-01T08:36:31.724Z,30.49
2019-06-01T08:39:05.442Z,30.28
2019-06-01T08:41:37.987Z,30.38
2019-06-01T08:44:10.428Z,30.19
2019-06-01T08:46:42.868Z,30.05
2019-06-01T08:49:15.244Z,30.27
2019-06-01T08:51:52.270Z,30.10
2019-06-01T08:54:26.015Z,30.35
2019-06-01T08:56:58.240Z,30.57
2019-06-01T08:59:30.425Z,30.67
2019-06-01T09:02:02.460Z,30.75
2019-06-01T09:04:35.009Z,30.13
2019-06-01T09:07:08.323Z,30.11
2019-06-01T09:09:40.496Z,30.12
2019-06-01T09:12:12.573Z,30.13
2019-06-01T09:14:44.653Z,30.21
2019-06-01T09:17:18.839Z,30.28
2019-06-01T09:19:50.907Z,30.13
2019-06-01T09:22:23.089Z,29.99
2019-06-01T09:24:55.230Z,30.02
2019-06-01T09:27:27.751Z,30.06
2019-06-01T09:29:59.897Z,29.98
2019-06-01T09:32:32.414Z,30.05
2019-06-01T09:35:06.851Z,30.27
2019-06-01T09:37:40.262Z,30.43
2019-06-01T09:40:13.870Z,30.28
2019-06-01T09:42:46.044Z,30.45
2019-06-01T09:45:18.615Z,30.19
2019-06-01T09:47:51.156Z,30.21
2019-06-01T09:50:23.554Z,30.32
2019-06-01T09:52:55.765Z,30.19
2019-06-01T09:55:30.361Z,30.21
2019-06-01T09:58:02.116Z,30.41
2019-06-01T10:00:35.014Z,30.36
2019-06-01T10:03:06.507Z,30.16
2019-06-01T10:05:38.621Z,30.20
2019-06-01T10:08:10.637Z,30.15
2019-06-01T10:10:42.786Z,30.25
2019-06-01T10:13:14.961Z,30.30
2019-06-01T10:15:47.091Z,30.33
2019-06-01T10:18:19.275Z,30.21
2019-06-01T10:21:07.893Z,30.24
2019-06-01T10:23:40.099Z,30.43
2019-06-01T10:26:12.250Z,30.40
2019-06-01T10:28:44.267Z,30.45
2019-06-01T10:31:16.416Z,30.63
2019-06-01T10:33:51.376Z,30.61
2019-06-01T10:36:22.537Z,30.41
2019-06-01T10:38:54.820Z,30.56
2019-06-01T10:41:26.996Z,30.63
2019-06-01T10:43:59.278Z,30.69
2019-06-01T10:46:31.828Z,30.66
2019-06-01T10:49:04.217Z,30.73
2019-06-01T10:51:36.476Z,30.80
2019-06-01T10:54:08.722Z,30.53
2019-06-01T10:56:40.876Z,30.61
2019-06-01T10:59:13.039Z,30.77
2019-06-01T11:01:45.202Z,30.69
2019-06-01T11:04:17.360Z,30.72
2019-06-01T11:06:50.546Z,30.65
2019-06-01T11:09:22.598Z,30.82
2019-06-01T11:11:54.706Z,30.77
2019-06-01T11:14:26.987Z,30.79
2019-06-01T11:16:59.256Z,30.74
2019-06-01T11:19:33.139Z,30.63
2019-06-01T11:22:05.582Z,30.61
2019-06-01T11:24:37.875Z,30.65
2019-06-01T11:27:10.014Z,30.59
2019-06-01T11:29:50.842Z,30.61
2019-06-01T11:32:16.189Z,30.73
2019-06-01T11:34:48.376Z,30.82
2019-06-01T11:37:20.646Z,30.80
2019-06-01T11:39:52.824Z,30.98
2019-06-01T11:42:25.152Z,30.87
2019-06-01T11:44:57.369Z,30.59
2019-06-01T11:47:29.446Z,30.40
2019-06-01T11:50:01.657Z,30.31
2019-06-01T11:52:34.962Z,30.39
2019-06-01T11:55:10.293Z,30.35
2019-06-01T11:57:43.494Z,30.35
2019-06-01T12:00:16.547Z,30.36
2019-06-01T12:02:48.638Z,30.16
2019-06-01T12:05:20.657Z,30.06
2019-06-01T12:07:52.901Z,30.25
2019-06-01T12:10:25.162Z,30.41
2019-06-01T12:12:57.308Z,30.79
2019-06-01T12:15:29.517Z,30.95
2019-06-01T12:18:04.638Z,31.03
2019-06-01T12:20:36.789Z,31.17
2019-06-01T12:23:09.149Z,31.03
2019-06-01T12:25:42.151Z,31.13
2019-06-01T12:28:14.359Z,31.30
2019-06-01T12:30:46.435Z,31.13
2019-06-01T12:33:18.610Z,31.11
2019-06-01T12:35:50.604Z,31.11
2019-06-01T12:38:22.754Z,31.25
2019-06-01T12:40:54.979Z,31.47
2019-06-01T12:43:27.148Z,31.42
2019-06-01T12:46:07.415Z,31.39
2019-06-01T12:48:33.501Z,31.43
2019-06-01T12:51:05.806Z,31.53
2019-06-01T12:53:37.889Z,31.35
2019-06-01T12:56:09.894Z,31.44
2019-06-01T12:58:42.057Z,31.60
2019-06-01T13:01:14.186Z,31.56
2019-06-01T13:03:47.503Z,31.50
2019-06-01T13:06:19.743Z,31.60
2019-06-01T13:08:52.991Z,31.51
2019-06-01T13:11:25.209Z,31.66
2019-06-01T13:13:57.241Z,31.61
2019-06-01T13:16:29.327Z,31.53
2019-06-01T13:19:01.402Z,31.45
2019-06-01T13:21:33.676Z,31.45
2019-06-01T13:24:06.045Z,31.41
2019-06-01T13:26:38.193Z,31.33
2019-06-01T13:29:10.389Z,31.53
2019-06-01T13:31:42.562Z,31.57
2019-06-01T13:34:14.707Z,31.70
2019-06-01T13:36:46.741Z,31.59
2019-06-01T13:39:18.923Z,31.60
2019-06-01T13:41:51.522Z,31.62
2019-06-01T13:44:23.817Z,31.55
2019-06-01T13:46:55.949Z,31.49
2019-06-01T13:49:29.029Z,31.49
2019-06-01T13:52:01.211Z,31.68
2019-06-01T13:54:33.371Z,31.66
2019-06-01T13:57:05.539Z,31.66
2019-06-01T13:59:37.746Z,31.68
2019-06-01T14:02:09.889Z,31.70
2019-06-01T14:04:42.141Z,31.73
2019-06-01T14:07:14.316Z,31.65
2019-06-01T14:09:47.055Z,31.68
2019-06-01T14:12:19.426Z,31.78
2019-06-01T14:14:51.574Z,31.49
2019-06-01T14:17:23.626Z,31.53
2019-06-01T14:19:55.863Z,31.54
2019-06-01T14:22:28.018Z,31.53
2019-06-01T14:25:12.625Z,31.48
2019-06-01T14:27:34.120Z,31.53
2019-06-01T14:30:08.364Z,31.53
2019-06-01T14:32:40.478Z,31.56
2019-06-01T14:35:12.681Z,31.34
2019-06-01T14:37:44.792Z,31.47
2019-06-01T14:40:16.933Z,31.50
2019-06-01T14:42:49.173Z,31.47
2019-06-01T14:45:22.016Z,31.35
2019-06-01T14:47:55.530Z,31.35
2019-06-01T14:50:27.930Z,31.46
2019-06-01T14:53:00.098Z,31.41
2019-06-01T14:55:32.366Z,31.30
2019-06-01T14:58:04.658Z,31.40
2019-06-01T15:00:36.908Z,31.45
2019-06-01T15:03:09.053Z,31.42
2019-06-01T15:05:41.260Z,31.30
2019-06-01T15:08:13.524Z,30.99
2019-06-01T15:10:45.802Z,30.88
2019-06-01T15:13:17.810Z,30.52
2019-06-01T15:15:51.279Z,30.28
2019-06-01T15:18:23.515Z,30.06
2019-06-01T15:20:55.947Z,29.68
2019-06-01T15:23:28.054Z,29.68
2019-06-01T15:26:00.737Z,29.57
2019-06-01T15:28:32.905Z,29.63
2019-06-01T15:31:05.680Z,29.59
2019-06-01T15:33:37.821Z,29.61
2019-06-01T15:36:10.131Z,29.70
2019-06-01T15:38:42.412Z,29.52
2019-06-01T15:41:14.507Z,29.43
2019-06-01T15:43:46.591Z,29.41
2019-06-01T15:46:19.946Z,29.39
2019-06-01T15:48:53.517Z,29.39
2019-06-01T15:51:25.853Z,29.32
2019-06-01T15:53:59.133Z,29.27
2019-06-01T15:56:31.268Z,29.30
2019-06-01T15:59:03.557Z,29.14
2019-06-01T16:01:35.803Z,29.05
2019-06-01T16:04:07.975Z,29.10
2019-06-01T16:06:40.216Z,29.01
2019-06-01T16:09:13.549Z,28.97
2019-06-01T16:11:45.905Z,28.96
2019-06-01T16:14:18.282Z,28.95
2019-06-01T16:16:50.547Z,28.93
2019-06-01T16:19:22.716Z,28.90
2019-06-01T16:21:55.823Z,28.83
2019-06-01T16:24:28.304Z,28.89
2019-06-01T16:27:00.637Z,28.88
2019-06-01T16:29:32.753Z,28.79
2019-06-01T16:32:05.177Z,28.71
2019-06-01T16:34:37.471Z,28.61
2019-06-01T16:37:09.679Z,28.64
2019-06-01T16:39:57.958Z,28.62
2019-06-01T16:42:16.604Z,28.62
2019-06-01T16:44:50.689Z,28.49
2019-06-01T16:47:22.834Z,28.46
2019-06-01T16:49:55.753Z,28.42
2019-06-01T16:52:28.212Z,28.50
2019-06-01T16:55:00.584Z,28.33
2019-06-01T16:57:32.714Z,28.33
2019-06-01T17:00:10.484Z,28.28
2019-06-01T17:02:42.667Z,28.26
2019-06-01T17:05:15.383Z,28.26
2019-06-01T17:07:48.257Z,28.18
2019-06-01T17:10:26.043Z,28.14
2019-06-01T17:12:54.449Z,28.10
2019-06-01T17:15:26.628Z,28.14
2019-06-01T17:18:02.987Z,28.15
2019-06-01T17:20:41.790Z,28.22
2019-06-01T17:23:26.917Z,28.32
2019-06-01T17:25:48.187Z,28.23
2019-06-01T17:28:20.637Z,28.14
2019-06-01T17:30:52.923Z,28.13
2019-06-01T17:33:25.185Z,28.09
2019-06-01T17:35:58.564Z,28.09
2019-06-01T17:38:30.877Z,28.00
2019-06-01T17:41:04.283Z,28.03
2019-06-01T17:43:37.682Z,28.04
2019-06-01T17:46:10.179Z,27.91
2019-06-01T17:48:42.868Z,27.84
2019-06-01T17:51:15.028Z,27.81
2019-06-01T17:53:47.306Z,27.83
2019-06-01T17:56:19.520Z,27.83
2019-06-01T17:58:51.797Z,27.75
2019-06-01T18:01:24.156Z,27.74
2019-06-01T18:03:56.525Z,27.68
2019-06-01T18:06:28.813Z,27.61
2019-06-01T18:09:01.969Z,27.66
2019-06-01T18:11:36.071Z,27.52
2019-06-01T18:14:10.268Z,27.49
2019-06-01T18:16:42.717Z,27.46
2019-06-01T18:19:14.942Z,27.51
2019-06-01T18:21:47.280Z,27.47
2019-06-01T18:24:19.704Z,27.41
2019-06-01T18:26:51.960Z,27.43
2019-06-01T18:29:24.209Z,27.38
2019-06-01T18:31:56.768Z,27.34
2019-06-01T18:34:29.259Z,27.28
2019-06-01T18:37:03.161Z,27.32
2019-06-01T18:39:37.344Z,27.29
2019-06-01T18:42:10.472Z,27.32
2019-06-01T18:44:42.689Z,27.43
2019-06-01T18:47:29.052Z,27.41
2019-06-01T18:49:48.793Z,27.41
2019-06-01T18:52:21.240Z,27.33
2019-06-01T18:54:53.625Z,27.30
2019-06-01T18:57:25.893Z,27.25
2019-06-01T18:59:58.090Z,27.13
2019-06-01T19:02:30.353Z,27.13
2019-06-01T19:05:02.775Z,27.23
2019-06-01T19:07:34.998Z,27.20
2019-06-01T19:10:09.481Z,27.15
2019-06-01T19:12:43.021Z,27.01
2019-06-01T19:15:26.658Z,26.96
2019-06-01T19:17:51.048Z,26.81
2019-06-01T19:20:23.193Z,26.88
2019-06-01T19:22:55.482Z,26.81
2019-06-01T19:25:27.776Z,26.71
2019-06-01T19:27:59.981Z,26.67
2019-06-01T19:30:40.503Z,26.52
2019-06-01T19:33:15.472Z,26.56
2019-06-01T19:35:47.243Z,26.43
2019-06-01T19:38:20.186Z,26.48
2019-06-01T19:40:51.678Z,26.52
2019-06-01T19:43:24.173Z,26.38
2019-06-01T19:45:56.457Z,26.34
2019-06-01T19:48:28.709Z,26.36
2019-06-01T19:51:01.087Z,26.38
2019-06-01T19:53:33.333Z,26.44
2019-06-01T19:56:08.717Z,26.33
2019-06-01T19:58:41.457Z,26.30
2019-06-01T20:01:14.209Z,25.21
2019-06-01T20:03:46.590Z,24.02
2019-06-01T20:06:18.996Z,23.36
2019-06-01T20:08:51.295Z,23.13
2019-06-01T20:11:23.430Z,22.70
2019-06-01T20:13:55.822Z,22.51
2019-06-01T20:16:28.284Z,22.36
2019-06-01T20:19:00.543Z,22.32
2019-06-01T20:21:32.636Z,22.07
2019-06-01T20:24:04.998Z,22.17
2019-06-01T20:26:44.604Z,21.99
2019-06-01T20:29:12.754Z,22.17
2019-06-01T20:31:45.096Z,22.08
2019-06-01T20:34:17.991Z,22.23
2019-06-01T20:36:50.241Z,21.75
2019-06-01T20:39:22.539Z,21.51
2019-06-01T20:41:54.772Z,21.43
2019-06-01T20:44:26.971Z,21.05
2019-06-01T20:46:59.457Z,21.13
2019-06-01T20:49:31.513Z,20.82
2019-06-01T20:52:03.750Z,20.72
2019-06-01T20:54:35.922Z,20.59
2019-06-01T20:57:08.082Z,20.37
2019-06-01T20:59:40.177Z,20.07
2019-06-01T21:02:13.629Z,20.25
2019-06-01T21:04:45.879Z,20.11
2019-06-01T21:07:18.101Z,20.06
2019-06-01T21:09:50.293Z,20.01
2019-06-01T21:12:42.663Z,19.85
2019-06-01T21:14:56.339Z,19.70
2019-06-01T21:17:28.398Z,19.79
2019-06-01T21:20:04.339Z,19.85
2019-06-01T21:22:34.370Z,19.55
2019-06-01T21:25:07.409Z,19.83
2019-06-01T21:27:40.721Z,19.57
2019-06-01T21:30:16.079Z,19.66
2019-06-01T21:32:48.078Z,19.55
2019-06-01T21:35:21.363Z,19.68
2019-06-01T21:37:52.846Z,19.80
2019-06-01T21:40:25.727Z,19.92
2019-06-01T21:43:12.556Z,19.93
2019-06-01T21:45:31.820Z,19.89
2019-06-01T21:48:04.344Z,19.95
2019-06-01T21:50:36.411Z,20.01
2019-06-01T21:53:08.479Z,20.02
2019-06-01T21:55:40.677Z,20.05
2019-06-01T21:58:12.829Z,20.03
2019-06-01T22:00:46.876Z,20.06
2019-06-01T22:03:19.236Z,20.18
2019-06-01T22:05:51.703Z,20.21
2019-06-01T22:08:25.244Z,20.34
2019-06-01T22:10:57.597Z,20.36
2019-06-01T22:13:29.986Z,20.38
2019-06-01T22:16:01.883Z,20.45
2019-06-01T22:18:34.022Z,20.54
2019-06-01T22:21:06.056Z,20.62
2019-06-01T22:23:38.181Z,20.61
2019-06-01T22:26:10.356Z,20.63
2019-06-01T22:28:43.122Z,20.69
2019-06-01T22:31:15.159Z,20.61
2019-06-01T22:33:47.135Z,20.60
2019-06-01T22:36:20.459Z,20.67
2019-06-01T22:38:52.758Z,20.67
2019-06-01T22:41:25.943Z,20.69
2019-06-01T22:43:57.384Z,20.68
2019-06-01T22:46:29.352Z,20.64
2019-06-01T22:49:01.605Z,20.56
2019-06-01T22:51:33.955Z,20.60
2019-06-01T22:54:05.976Z,20.57
2019-06-01T22:56:38.140Z,20.41
2019-06-01T22:59:10.273Z,20.45
2019-06-01T23:01:42.454Z,20.63
2019-06-01T23:04:14.567Z,20.54
2019-06-01T23:06:46.781Z,20.60
2019-06-01T23:09:18.954Z,20.59
2019-06-01T23:11:51.142Z,20.54
2019-06-01T23:14:23.417Z,20.55
2019-06-01T23:16:55.592Z,20.37
2019-06-01T23:19:28.073Z,20.36
2019-06-01T23:22:00.508Z,20.46
2019-06-01T23:24:32.739Z,20.41
2019-06-01T23:27:04.867Z,20.39
2019-06-01T23:29:37.098Z,20.38
2019-06-01T23:32:09.137Z,20.42
2019-06-01T23:34:41.294Z,20.32
2019-06-01T23:37:13.511Z,20.39
2019-06-01T23:39:45.808Z,20.48
2019-06-01T23:42:18.109Z,20.45
2019-06-01T23:44:50.641Z,20.30
2019-06-01T23:47:23.114Z,20.47
2019-06-01T23:49:55.158Z,20.27
2019-06-01T23:52:27.529Z,20.23
2019-06-01T23:54:59.858Z,20.28
2019-06-01T23:57:32.144Z,20.25
